Guilford Center, New York
Current Conditions -  °F | °C
As of 5:53 PM on Friday 28 Nov 2014 (Local Time) from KBGM Reporting Station
Few Clouds Few Clouds  
Wind Chill: 21°   Ceiling: Unl
Heat Index: 21°   Visibility: 10mi
Dew Point:   Wind: 3mph
Humidity: 57%   Direction: 310°NW
Pressure: 30.15"   Gusts: NA
Location:  42.4316°N, 75.4759°W
Report Text: KBGM 282253Z 31003KT 10SM FEW035 M06/M13 A3015 RMK AO2 SLP231 T10611133
Loading
Personal Weather Stations






























Interactive Weather Map New forecast layout! Learn more

10-Day Weather Forecast

Advertisements
Track Severe Weather on mobile